sensor_id;sensor_type;location;lat;lon;timestamp;P1;durP1;ratioP1;P2;durP2;ratioP2
83513;SDS011;73447;53.262;10.424;2023-11-22T00:00:46;5.10;;;3.30;;
83513;SDS011;73447;53.262;10.424;2023-11-22T00:03:12;9.15;;;4.03;;
83513;SDS011;73447;53.262;10.424;2023-11-22T00:05:37;7.10;;;3.60;;
83513;SDS011;73447;53.262;10.424;2023-11-22T00:08:03;6.63;;;3.63;;
83513;SDS011;73447;53.262;10.424;2023-11-22T00:10:28;7.10;;;3.80;;
83513;SDS011;73447;53.262;10.424;2023-11-22T00:12:53;5.13;;;3.30;;
83513;SDS011;73447;53.262;10.424;2023-11-22T00:15:19;5.78;;;3.80;;
83513;SDS011;73447;53.262;10.424;2023-11-22T00:17:45;8.90;;;3.75;;
83513;SDS011;73447;53.262;10.424;2023-11-22T00:20:10;7.38;;;3.92;;
83513;SDS011;73447;53.262;10.424;2023-11-22T00:22:36;6.57;;;3.50;;
83513;SDS011;73447;53.262;10.424;2023-11-22T00:25:02;5.93;;;3.72;;
83513;SDS011;73447;53.262;10.424;2023-11-22T00:27:29;6.13;;;3.97;;
83513;SDS011;73447;53.262;10.424;2023-11-22T00:29:58;5.88;;;3.58;;
83513;SDS011;73447;53.262;10.424;2023-11-22T00:32:24;8.23;;;4.20;;
83513;SDS011;73447;53.262;10.424;2023-11-22T00:34:50;9.52;;;4.88;;
83513;SDS011;73447;53.262;10.424;2023-11-22T00:37:16;8.95;;;4.68;;
83513;SDS011;73447;53.262;10.424;2023-11-22T00:39:41;6.22;;;4.15;;
83513;SDS011;73447;53.262;10.424;2023-11-22T00:42:07;7.15;;;4.25;;
83513;SDS011;73447;53.262;10.424;2023-11-22T00:44:33;9.63;;;4.40;;
83513;SDS011;73447;53.262;10.424;2023-11-22T00:46:58;8.50;;;4.53;;
83513;SDS011;73447;53.262;10.424;2023-11-22T00:49:24;9.52;;;4.45;;
83513;SDS011;73447;53.262;10.424;2023-11-22T00:51:49;7.25;;;4.38;;
83513;SDS011;73447;53.262;10.424;2023-11-22T00:54:16;10.80;;;4.78;;
83513;SDS011;73447;53.262;10.424;2023-11-22T00:56:41;9.68;;;5.43;;
83513;SDS011;73447;53.262;10.424;2023-11-22T00:59:07;10.25;;;5.07;;
83513;SDS011;73447;53.262;10.424;2023-11-22T01:01:32;9.75;;;5.65;;
83513;SDS011;73447;53.262;10.424;2023-11-22T01:03:57;8.27;;;4.90;;
83513;SDS011;73447;53.262;10.424;2023-11-22T01:06:23;10.30;;;4.95;;
83513;SDS011;73447;53.262;10.424;2023-11-22T01:08:49;8.32;;;4.75;;
83513;SDS011;73447;53.262;10.424;2023-11-22T01:11:14;10.07;;;4.80;;
83513;SDS011;73447;53.262;10.424;2023-11-22T01:13:40;10.63;;;4.80;;
83513;SDS011;73447;53.262;10.424;2023-11-22T01:16:07;7.95;;;4.40;;
83513;SDS011;73447;53.262;10.424;2023-11-22T01:18:33;9.77;;;5.35;;
83513;SDS011;73447;53.262;10.424;2023-11-22T01:20:58;10.30;;;4.97;;
83513;SDS011;73447;53.262;10.424;2023-11-22T01:23:24;8.45;;;4.18;;
83513;SDS011;73447;53.262;10.424;2023-11-22T01:25:49;6.38;;;4.00;;
83513;SDS011;73447;53.262;10.424;2023-11-22T01:28:15;9.15;;;4.25;;
83513;SDS011;73447;53.262;10.424;2023-11-22T01:30:42;4.93;;;3.65;;
83513;SDS011;73447;53.262;10.424;2023-11-22T01:33:10;6.95;;;4.22;;
83513;SDS011;73447;53.262;10.424;2023-11-22T01:35:36;9.40;;;4.80;;
83513;SDS011;73447;53.262;10.424;2023-11-22T01:38:01;6.75;;;4.40;;
83513;SDS011;73447;53.262;10.424;2023-11-22T01:40:29;9.30;;;4.50;;
83513;SDS011;73447;53.262;10.424;2023-11-22T01:42:55;11.13;;;5.15;;
83513;SDS011;73447;53.262;10.424;2023-11-22T01:45:20;7.47;;;4.60;;
83513;SDS011;73447;53.262;10.424;2023-11-22T01:47:46;9.48;;;5.35;;
83513;SDS011;73447;53.262;10.424;2023-11-22T01:50:11;11.07;;;5.22;;
83513;SDS011;73447;53.262;10.424;2023-11-22T01:52:39;11.75;;;5.38;;
83513;SDS011;73447;53.262;10.424;2023-11-22T01:55:05;8.38;;;5.18;;
83513;SDS011;73447;53.262;10.424;2023-11-22T01:57:32;10.23;;;4.35;;
83513;SDS011;73447;53.262;10.424;2023-11-22T02:00:00;9.55;;;5.15;;
83513;SDS011;73447;53.262;10.424;2023-11-22T02:02:28;9.00;;;5.25;;
83513;SDS011;73447;53.262;10.424;2023-11-22T02:04:55;8.77;;;4.72;;
83513;SDS011;73447;53.262;10.424;2023-11-22T02:07:20;7.95;;;4.63;;
83513;SDS011;73447;53.262;10.424;2023-11-22T02:09:45;10.68;;;4.50;;
83513;SDS011;73447;53.262;10.424;2023-11-22T02:12:11;7.95;;;4.32;;
83513;SDS011;73447;53.262;10.424;2023-11-22T02:14:37;6.47;;;4.25;;
83513;SDS011;73447;53.262;10.424;2023-11-22T02:17:03;7.20;;;4.60;;
83513;SDS011;73447;53.262;10.424;2023-11-22T02:19:28;8.10;;;4.60;;
83513;SDS011;73447;53.262;10.424;2023-11-22T02:21:55;9.05;;;4.15;;
83513;SDS011;73447;53.262;10.424;2023-11-22T02:24:21;8.82;;;5.10;;
83513;SDS011;73447;53.262;10.424;2023-11-22T02:26:46;9.95;;;4.70;;
83513;SDS011;73447;53.262;10.424;2023-11-22T02:29:12;8.20;;;4.53;;
83513;SDS011;73447;53.262;10.424;2023-11-22T02:31:39;9.35;;;4.75;;
83513;SDS011;73447;53.262;10.424;2023-11-22T02:34:06;8.88;;;4.55;;
83513;SDS011;73447;53.262;10.424;2023-11-22T02:36:32;13.45;;;5.25;;
83513;SDS011;73447;53.262;10.424;2023-11-22T02:38:57;7.65;;;4.82;;
83513;SDS011;73447;53.262;10.424;2023-11-22T02:41:23;7.80;;;4.90;;
83513;SDS011;73447;53.262;10.424;2023-11-22T02:43:50;8.48;;;4.88;;
83513;SDS011;73447;53.262;10.424;2023-11-22T02:46:16;8.75;;;4.65;;
83513;SDS011;73447;53.262;10.424;2023-11-22T02:48:41;7.15;;;4.43;;
83513;SDS011;73447;53.262;10.424;2023-11-22T02:51:06;7.05;;;4.20;;
83513;SDS011;73447;53.262;10.424;2023-11-22T02:53:32;6.78;;;4.65;;
83513;SDS011;73447;53.262;10.424;2023-11-22T02:56:00;12.80;;;5.00;;
83513;SDS011;73447;53.262;10.424;2023-11-22T02:58:27;10.57;;;4.97;;
83513;SDS011;73447;53.262;10.424;2023-11-22T03:00:56;8.63;;;4.90;;
83513;SDS011;73447;53.262;10.424;2023-11-22T03:03:22;10.50;;;4.90;;
83513;SDS011;73447;53.262;10.424;2023-11-22T03:05:49;10.82;;;4.60;;
83513;SDS011;73447;53.262;10.424;2023-11-22T03:08:15;9.57;;;4.85;;
83513;SDS011;73447;53.262;10.424;2023-11-22T03:10:41;8.88;;;4.82;;
83513;SDS011;73447;53.262;10.424;2023-11-22T03:13:07;8.88;;;5.07;;
83513;SDS011;73447;53.262;10.424;2023-11-22T03:15:33;7.18;;;4.63;;
83513;SDS011;73447;53.262;10.424;2023-11-22T03:17:59;8.02;;;5.20;;
83513;SDS011;73447;53.262;10.424;2023-11-22T03:20:26;8.02;;;5.05;;
83513;SDS011;73447;53.262;10.424;2023-11-22T03:22:52;7.50;;;4.75;;
83513;SDS011;73447;53.262;10.424;2023-11-22T03:25:17;11.73;;;4.65;;
83513;SDS011;73447;53.262;10.424;2023-11-22T03:27:43;6.72;;;4.28;;
83513;SDS011;73447;53.262;10.424;2023-11-22T03:30:09;7.57;;;4.60;;
83513;SDS011;73447;53.262;10.424;2023-11-22T03:32:39;7.75;;;4.85;;
83513;SDS011;73447;53.262;10.424;2023-11-22T03:35:05;9.60;;;5.15;;
83513;SDS011;73447;53.262;10.424;2023-11-22T03:37:32;8.18;;;4.70;;
83513;SDS011;73447;53.262;10.424;2023-11-22T03:39:58;10.98;;;4.93;;
83513;SDS011;73447;53.262;10.424;2023-11-22T03:42:23;9.68;;;4.93;;
83513;SDS011;73447;53.262;10.424;2023-11-22T03:44:49;9.40;;;4.90;;
83513;SDS011;73447;53.262;10.424;2023-11-22T03:47:15;11.57;;;5.22;;
83513;SDS011;73447;53.262;10.424;2023-11-22T03:49:40;10.65;;;5.82;;
83513;SDS011;73447;53.262;10.424;2023-11-22T03:52:06;10.73;;;5.82;;
83513;SDS011;73447;53.262;10.424;2023-11-22T03:54:33;9.55;;;5.53;;
83513;SDS011;73447;53.262;10.424;2023-11-22T03:56:58;12.98;;;5.55;;
83513;SDS011;73447;53.262;10.424;2023-11-22T03:59:24;12.25;;;5.95;;
83513;SDS011;73447;53.262;10.424;2023-11-22T04:01:49;9.45;;;5.40;;
83513;SDS011;73447;53.262;10.424;2023-11-22T04:04:15;10.98;;;5.28;;
83513;SDS011;73447;53.262;10.424;2023-11-22T04:06:41;8.93;;;5.70;;
83513;SDS011;73447;53.262;10.424;2023-11-22T04:09:06;9.02;;;5.05;;
83513;SDS011;73447;53.262;10.424;2023-11-22T04:11:33;10.32;;;4.70;;
83513;SDS011;73447;53.262;10.424;2023-11-22T04:13:59;8.07;;;4.65;;
83513;SDS011;73447;53.262;10.424;2023-11-22T04:16:25;11.13;;;5.10;;
83513;SDS011;73447;53.262;10.424;2023-11-22T04:18:50;10.48;;;5.15;;
83513;SDS011;73447;53.262;10.424;2023-11-22T04:21:16;8.48;;;5.15;;
83513;SDS011;73447;53.262;10.424;2023-11-22T04:23:41;7.25;;;4.80;;
83513;SDS011;73447;53.262;10.424;2023-11-22T04:26:07;9.65;;;5.30;;
83513;SDS011;73447;53.262;10.424;2023-11-22T04:28:33;8.10;;;5.15;;
83513;SDS011;73447;53.262;10.424;2023-11-22T04:30:59;12.13;;;5.68;;
83513;SDS011;73447;53.262;10.424;2023-11-22T04:33:25;9.23;;;5.97;;
83513;SDS011;73447;53.262;10.424;2023-11-22T04:35:53;8.65;;;4.82;;
83513;SDS011;73447;53.262;10.424;2023-11-22T04:38:19;8.70;;;4.85;;
83513;SDS011;73447;53.262;10.424;2023-11-22T04:40:45;8.40;;;4.90;;
83513;SDS011;73447;53.262;10.424;2023-11-22T04:43:10;8.20;;;4.90;;
83513;SDS011;73447;53.262;10.424;2023-11-22T04:45:36;9.40;;;4.70;;
83513;SDS011;73447;53.262;10.424;2023-11-22T04:48:02;8.48;;;4.63;;
83513;SDS011;73447;53.262;10.424;2023-11-22T04:50:29;8.60;;;5.13;;
83513;SDS011;73447;53.262;10.424;2023-11-22T04:52:54;7.45;;;4.88;;
83513;SDS011;73447;53.262;10.424;2023-11-22T04:55:19;9.18;;;4.70;;
83513;SDS011;73447;53.262;10.424;2023-11-22T04:57:45;9.35;;;4.80;;
83513;SDS011;73447;53.262;10.424;2023-11-22T05:00:12;9.85;;;4.57;;
83513;SDS011;73447;53.262;10.424;2023-11-22T05:02:38;9.70;;;5.18;;
83513;SDS011;73447;53.262;10.424;2023-11-22T05:05:05;7.40;;;4.38;;
83513;SDS011;73447;53.262;10.424;2023-11-22T05:07:31;10.57;;;4.47;;
83513;SDS011;73447;53.262;10.424;2023-11-22T05:09:56;8.63;;;4.82;;
83513;SDS011;73447;53.262;10.424;2023-11-22T05:12:22;7.38;;;4.70;;
83513;SDS011;73447;53.262;10.424;2023-11-22T05:14:47;7.47;;;4.55;;
83513;SDS011;73447;53.262;10.424;2023-11-22T05:17:13;7.15;;;4.65;;
83513;SDS011;73447;53.262;10.424;2023-11-22T05:19:38;8.77;;;4.95;;
83513;SDS011;73447;53.262;10.424;2023-11-22T05:22:04;8.52;;;4.72;;
83513;SDS011;73447;53.262;10.424;2023-11-22T05:24:30;7.97;;;4.88;;
83513;SDS011;73447;53.262;10.424;2023-11-22T05:26:55;12.05;;;4.60;;
83513;SDS011;73447;53.262;10.424;2023-11-22T05:29:21;9.07;;;5.65;;
83513;SDS011;73447;53.262;10.424;2023-11-22T05:31:46;7.82;;;4.95;;
83513;SDS011;73447;53.262;10.424;2023-11-22T05:34:12;11.02;;;5.40;;
83513;SDS011;73447;53.262;10.424;2023-11-22T05:36:38;11.75;;;5.55;;
83513;SDS011;73447;53.262;10.424;2023-11-22T05:39:03;10.63;;;5.72;;
83513;SDS011;73447;53.262;10.424;2023-11-22T05:41:29;10.82;;;5.88;;
83513;SDS011;73447;53.262;10.424;2023-11-22T05:43:55;13.95;;;6.18;;
83513;SDS011;73447;53.262;10.424;2023-11-22T05:46:21;11.73;;;5.80;;
83513;SDS011;73447;53.262;10.424;2023-11-22T05:48:49;9.05;;;4.63;;
83513;SDS011;73447;53.262;10.424;2023-11-22T05:51:17;10.15;;;5.00;;
83513;SDS011;73447;53.262;10.424;2023-11-22T05:53:43;8.98;;;5.38;;
83513;SDS011;73447;53.262;10.424;2023-11-22T05:56:08;9.55;;;5.55;;
83513;SDS011;73447;53.262;10.424;2023-11-22T05:58:34;8.32;;;5.25;;
83513;SDS011;73447;53.262;10.424;2023-11-22T06:01:03;10.10;;;4.80;;
83513;SDS011;73447;53.262;10.424;2023-11-22T06:03:29;10.85;;;5.18;;
83513;SDS011;73447;53.262;10.424;2023-11-22T06:05:55;10.20;;;5.30;;
83513;SDS011;73447;53.262;10.424;2023-11-22T06:08:22;9.73;;;4.72;;
83513;SDS011;73447;53.262;10.424;2023-11-22T06:10:48;10.25;;;5.00;;
83513;SDS011;73447;53.262;10.424;2023-11-22T06:13:13;9.90;;;5.40;;
83513;SDS011;73447;53.262;10.424;2023-11-22T06:15:39;9.25;;;4.88;;
83513;SDS011;73447;53.262;10.424;2023-11-22T06:18:04;9.75;;;4.57;;
83513;SDS011;73447;53.262;10.424;2023-11-22T06:20:29;7.90;;;4.40;;
83513;SDS011;73447;53.262;10.424;2023-11-22T06:22:55;7.70;;;4.47;;
83513;SDS011;73447;53.262;10.424;2023-11-22T06:25:20;10.02;;;6.07;;
83513;SDS011;73447;53.262;10.424;2023-11-22T06:27:46;11.05;;;5.68;;
83513;SDS011;73447;53.262;10.424;2023-11-22T06:30:11;15.35;;;6.55;;
83513;SDS011;73447;53.262;10.424;2023-11-22T06:32:36;9.48;;;5.22;;
83513;SDS011;73447;53.262;10.424;2023-11-22T06:35:02;12.27;;;5.35;;
83513;SDS011;73447;53.262;10.424;2023-11-22T06:37:28;11.35;;;5.50;;
83513;SDS011;73447;53.262;10.424;2023-11-22T06:39:53;10.20;;;5.40;;
83513;SDS011;73447;53.262;10.424;2023-11-22T06:42:19;7.88;;;5.60;;
83513;SDS011;73447;53.262;10.424;2023-11-22T06:44:46;9.02;;;4.78;;
83513;SDS011;73447;53.262;10.424;2023-11-22T06:47:15;9.38;;;4.90;;
83513;SDS011;73447;53.262;10.424;2023-11-22T06:49:40;15.45;;;8.90;;
83513;SDS011;73447;53.262;10.424;2023-11-22T06:52:06;12.27;;;7.70;;
83513;SDS011;73447;53.262;10.424;2023-11-22T06:54:31;8.25;;;4.97;;
83513;SDS011;73447;53.262;10.424;2023-11-22T06:56:57;9.23;;;5.38;;
83513;SDS011;73447;53.262;10.424;2023-11-22T06:59:22;14.45;;;5.22;;
83513;SDS011;73447;53.262;10.424;2023-11-22T07:01:48;11.32;;;5.85;;
83513;SDS011;73447;53.262;10.424;2023-11-22T07:04:13;10.68;;;5.40;;
83513;SDS011;73447;53.262;10.424;2023-11-22T07:06:38;11.07;;;5.57;;
83513;SDS011;73447;53.262;10.424;2023-11-22T07:09:04;10.18;;;5.32;;
83513;SDS011;73447;53.262;10.424;2023-11-22T07:11:30;9.95;;;5.20;;
83513;SDS011;73447;53.262;10.424;2023-11-22T07:13:56;9.93;;;5.75;;
83513;SDS011;73447;53.262;10.424;2023-11-22T07:16:22;10.80;;;5.50;;
83513;SDS011;73447;53.262;10.424;2023-11-22T07:18:49;9.10;;;5.75;;
83513;SDS011;73447;53.262;10.424;2023-11-22T07:21:15;9.75;;;5.97;;
83513;SDS011;73447;53.262;10.424;2023-11-22T07:23:41;14.15;;;6.38;;
83513;SDS011;73447;53.262;10.424;2023-11-22T07:26:07;9.63;;;6.18;;
83513;SDS011;73447;53.262;10.424;2023-11-22T07:28:32;12.25;;;6.43;;
83513;SDS011;73447;53.262;10.424;2023-11-22T07:31:00;9.38;;;5.10;;
83513;SDS011;73447;53.262;10.424;2023-11-22T07:33:26;12.43;;;5.75;;
83513;SDS011;73447;53.262;10.424;2023-11-22T07:35:52;10.57;;;5.75;;
83513;SDS011;73447;53.262;10.424;2023-11-22T07:38:18;11.25;;;6.13;;
83513;SDS011;73447;53.262;10.424;2023-11-22T07:40:44;10.45;;;5.97;;
83513;SDS011;73447;53.262;10.424;2023-11-22T07:43:10;9.65;;;5.97;;
83513;SDS011;73447;53.262;10.424;2023-11-22T07:45:35;12.63;;;6.93;;
83513;SDS011;73447;53.262;10.424;2023-11-22T07:48:02;11.10;;;6.22;;
83513;SDS011;73447;53.262;10.424;2023-11-22T07:50:29;9.68;;;6.05;;
83513;SDS011;73447;53.262;10.424;2023-11-22T07:52:54;14.85;;;6.63;;
83513;SDS011;73447;53.262;10.424;2023-11-22T07:55:20;10.23;;;5.82;;
83513;SDS011;73447;53.262;10.424;2023-11-22T07:57:48;20.95;;;7.65;;
83513;SDS011;73447;53.262;10.424;2023-11-22T08:00:15;14.82;;;7.05;;
83513;SDS011;73447;53.262;10.424;2023-11-22T08:02:44;16.40;;;8.98;;
83513;SDS011;73447;53.262;10.424;2023-11-22T08:05:10;17.17;;;7.35;;
83513;SDS011;73447;53.262;10.424;2023-11-22T08:07:37;11.07;;;5.93;;
83513;SDS011;73447;53.262;10.424;2023-11-22T08:10:07;11.13;;;6.25;;
83513;SDS011;73447;53.262;10.424;2023-11-22T08:12:43;9.30;;;5.70;;
83513;SDS011;73447;53.262;10.424;2023-11-22T08:15:13;11.20;;;6.20;;
83513;SDS011;73447;53.262;10.424;2023-11-22T08:17:40;11.60;;;6.68;;
83513;SDS011;73447;53.262;10.424;2023-11-22T08:20:06;10.40;;;6.30;;
83513;SDS011;73447;53.262;10.424;2023-11-22T08:22:37;14.32;;;7.10;;
83513;SDS011;73447;53.262;10.424;2023-11-22T08:25:04;14.30;;;7.18;;
83513;SDS011;73447;53.262;10.424;2023-11-22T08:27:30;16.77;;;7.15;;
83513;SDS011;73447;53.262;10.424;2023-11-22T08:29:56;12.23;;;6.68;;
83513;SDS011;73447;53.262;10.424;2023-11-22T08:32:22;16.92;;;7.05;;
83513;SDS011;73447;53.262;10.424;2023-11-22T08:34:50;9.85;;;6.13;;
83513;SDS011;73447;53.262;10.424;2023-11-22T08:37:16;12.68;;;6.43;;
83513;SDS011;73447;53.262;10.424;2023-11-22T08:39:42;11.38;;;6.28;;
83513;SDS011;73447;53.262;10.424;2023-11-22T08:42:08;10.68;;;6.53;;
83513;SDS011;73447;53.262;10.424;2023-11-22T08:44:37;12.90;;;6.60;;
83513;SDS011;73447;53.262;10.424;2023-11-22T08:47:03;12.43;;;6.25;;
83513;SDS011;73447;53.262;10.424;2023-11-22T08:49:28;11.13;;;6.50;;
83513;SDS011;73447;53.262;10.424;2023-11-22T08:51:54;13.00;;;6.75;;
83513;SDS011;73447;53.262;10.424;2023-11-22T08:54:20;11.35;;;6.82;;
83513;SDS011;73447;53.262;10.424;2023-11-22T08:56:46;11.10;;;7.03;;
83513;SDS011;73447;53.262;10.424;2023-11-22T08:59:14;17.25;;;7.85;;
83513;SDS011;73447;53.262;10.424;2023-11-22T09:01:43;11.35;;;6.88;;
83513;SDS011;73447;53.262;10.424;2023-11-22T09:04:10;13.13;;;7.57;;
83513;SDS011;73447;53.262;10.424;2023-11-22T09:06:36;14.75;;;7.55;;
83513;SDS011;73447;53.262;10.424;2023-11-22T09:09:02;14.00;;;7.93;;
83513;SDS011;73447;53.262;10.424;2023-11-22T09:11:28;15.32;;;7.10;;
83513;SDS011;73447;53.262;10.424;2023-11-22T09:13:53;17.50;;;8.77;;
83513;SDS011;73447;53.262;10.424;2023-11-22T09:16:21;14.30;;;8.32;;
83513;SDS011;73447;53.262;10.424;2023-11-22T09:18:49;16.73;;;8.55;;
83513;SDS011;73447;53.262;10.424;2023-11-22T09:21:15;13.00;;;7.22;;
83513;SDS011;73447;53.262;10.424;2023-11-22T09:23:42;12.60;;;7.63;;
83513;SDS011;73447;53.262;10.424;2023-11-22T09:26:07;13.23;;;8.13;;
83513;SDS011;73447;53.262;10.424;2023-11-22T09:28:33;13.98;;;8.35;;
83513;SDS011;73447;53.262;10.424;2023-11-22T09:30:58;13.05;;;8.00;;
83513;SDS011;73447;53.262;10.424;2023-11-22T09:33:31;13.02;;;8.30;;
83513;SDS011;73447;53.262;10.424;2023-11-22T09:35:57;18.80;;;8.77;;
83513;SDS011;73447;53.262;10.424;2023-11-22T09:38:23;14.57;;;8.38;;
83513;SDS011;73447;53.262;10.424;2023-11-22T09:40:49;11.77;;;7.75;;
83513;SDS011;73447;53.262;10.424;2023-11-22T09:43:16;14.32;;;8.05;;
83513;SDS011;73447;53.262;10.424;2023-11-22T09:45:49;13.00;;;7.60;;
83513;SDS011;73447;53.262;10.424;2023-11-22T09:48:15;13.32;;;7.60;;
83513;SDS011;73447;53.262;10.424;2023-11-22T09:51:01;11.88;;;7.43;;
83513;SDS011;73447;53.262;10.424;2023-11-22T09:53:33;12.73;;;7.25;;
83513;SDS011;73447;53.262;10.424;2023-11-22T09:56:01;8.82;;;5.53;;
83513;SDS011;73447;53.262;10.424;2023-11-22T09:58:32;9.45;;;5.90;;
83513;SDS011;73447;53.262;10.424;2023-11-22T10:01:02;9.02;;;5.80;;
83513;SDS011;73447;53.262;10.424;2023-11-22T10:03:29;7.40;;;4.80;;
83513;SDS011;73447;53.262;10.424;2023-11-22T10:05:58;13.32;;;5.75;;
83513;SDS011;73447;53.262;10.424;2023-11-22T10:08:27;10.43;;;5.45;;
83513;SDS011;73447;53.262;10.424;2023-11-22T10:10:55;7.53;;;4.90;;
83513;SDS011;73447;53.262;10.424;2023-11-22T10:13:21;8.63;;;5.13;;
83513;SDS011;73447;53.262;10.424;2023-11-22T10:15:48;8.48;;;4.90;;
83513;SDS011;73447;53.262;10.424;2023-11-22T10:18:14;9.48;;;4.72;;
83513;SDS011;73447;53.262;10.424;2023-11-22T10:20:40;6.32;;;4.47;;
83513;SDS011;73447;53.262;10.424;2023-11-22T10:23:24;7.32;;;4.55;;
83513;SDS011;73447;53.262;10.424;2023-11-22T10:25:54;8.48;;;4.63;;
83513;SDS011;73447;53.262;10.424;2023-11-22T10:28:21;9.93;;;5.18;;
83513;SDS011;73447;53.262;10.424;2023-11-22T10:30:50;8.45;;;4.85;;
83513;SDS011;73447;53.262;10.424;2023-11-22T10:33:19;7.22;;;4.75;;
83513;SDS011;73447;53.262;10.424;2023-11-22T10:35:51;10.48;;;4.78;;
83513;SDS011;73447;53.262;10.424;2023-11-22T10:38:18;7.88;;;5.28;;
83513;SDS011;73447;53.262;10.424;2023-11-22T10:40:45;9.43;;;5.15;;
83513;SDS011;73447;53.262;10.424;2023-11-22T10:43:12;8.52;;;5.22;;
83513;SDS011;73447;53.262;10.424;2023-11-22T10:45:38;9.63;;;4.63;;
83513;SDS011;73447;53.262;10.424;2023-11-22T10:48:06;7.43;;;4.72;;
83513;SDS011;73447;53.262;10.424;2023-11-22T10:50:34;11.75;;;7.82;;
83513;SDS011;73447;53.262;10.424;2023-11-22T10:52:59;12.32;;;7.03;;
83513;SDS011;73447;53.262;10.424;2023-11-22T10:55:31;6.80;;;4.18;;
83513;SDS011;73447;53.262;10.424;2023-11-22T10:58:01;6.50;;;4.20;;
83513;SDS011;73447;53.262;10.424;2023-11-22T11:00:27;6.15;;;4.05;;
83513;SDS011;73447;53.262;10.424;2023-11-22T11:03:00;7.45;;;4.32;;
83513;SDS011;73447;53.262;10.424;2023-11-22T11:05:30;7.50;;;4.32;;
83513;SDS011;73447;53.262;10.424;2023-11-22T11:08:17;6.53;;;4.05;;
83513;SDS011;73447;53.262;10.424;2023-11-22T11:10:45;6.28;;;4.50;;
83513;SDS011;73447;53.262;10.424;2023-11-22T11:13:11;6.28;;;4.90;;
83513;SDS011;73447;53.262;10.424;2023-11-22T11:15:38;6.68;;;3.83;;
83513;SDS011;73447;53.262;10.424;2023-11-22T11:18:06;5.35;;;3.40;;
83513;SDS011;73447;53.262;10.424;2023-11-22T11:20:51;5.47;;;3.25;;
83513;SDS011;73447;53.262;10.424;2023-11-22T11:23:25;6.45;;;3.60;;
83513;SDS011;73447;53.262;10.424;2023-11-22T11:25:58;6.00;;;3.67;;
83513;SDS011;73447;53.262;10.424;2023-11-22T11:28:43;5.80;;;3.22;;
83513;SDS011;73447;53.262;10.424;2023-11-22T11:31:09;7.78;;;4.55;;
83513;SDS011;73447;53.262;10.424;2023-11-22T11:33:36;5.95;;;3.97;;
83513;SDS011;73447;53.262;10.424;2023-11-22T11:38:49;5.43;;;3.47;;
83513;SDS011;73447;53.262;10.424;2023-11-22T11:41:15;7.03;;;3.70;;
83513;SDS011;73447;53.262;10.424;2023-11-22T11:43:45;5.43;;;3.58;;
83513;SDS011;73447;53.262;10.424;2023-11-22T11:46:12;5.18;;;3.80;;
83513;SDS011;73447;53.262;10.424;2023-11-22T11:48:50;7.22;;;3.70;;
83513;SDS011;73447;53.262;10.424;2023-11-22T11:51:17;7.35;;;3.97;;
83513;SDS011;73447;53.262;10.424;2023-11-22T11:53:44;6.43;;;3.92;;
83513;SDS011;73447;53.262;10.424;2023-11-22T11:56:10;7.80;;;4.35;;
83513;SDS011;73447;53.262;10.424;2023-11-22T11:58:36;6.80;;;3.90;;
83513;SDS011;73447;53.262;10.424;2023-11-22T12:01:03;7.53;;;4.35;;
83513;SDS011;73447;53.262;10.424;2023-11-22T12:03:30;7.68;;;4.10;;
83513;SDS011;73447;53.262;10.424;2023-11-22T12:05:55;11.57;;;4.30;;
83513;SDS011;73447;53.262;10.424;2023-11-22T12:08:21;9.40;;;4.88;;
83513;SDS011;73447;53.262;10.424;2023-11-22T12:10:47;6.53;;;4.13;;
83513;SDS011;73447;53.262;10.424;2023-11-22T12:13:20;7.75;;;4.22;;
83513;SDS011;73447;53.262;10.424;2023-11-22T12:15:49;7.30;;;4.43;;
83513;SDS011;73447;53.262;10.424;2023-11-22T12:18:16;6.55;;;4.35;;
83513;SDS011;73447;53.262;10.424;2023-11-22T12:20:44;7.15;;;3.97;;
83513;SDS011;73447;53.262;10.424;2023-11-22T12:23:19;7.95;;;4.50;;
83513;SDS011;73447;53.262;10.424;2023-11-22T12:25:45;9.30;;;4.97;;
83513;SDS011;73447;53.262;10.424;2023-11-22T12:28:10;8.00;;;4.38;;
83513;SDS011;73447;53.262;10.424;2023-11-22T12:30:36;11.50;;;4.85;;
83513;SDS011;73447;53.262;10.424;2023-11-22T12:33:03;9.18;;;4.68;;
83513;SDS011;73447;53.262;10.424;2023-11-22T12:35:33;6.85;;;4.18;;
83513;SDS011;73447;53.262;10.424;2023-11-22T12:38:02;8.85;;;4.47;;
83513;SDS011;73447;53.262;10.424;2023-11-22T12:40:30;7.45;;;4.18;;
83513;SDS011;73447;53.262;10.424;2023-11-22T12:42:57;7.95;;;4.80;;
83513;SDS011;73447;53.262;10.424;2023-11-22T12:45:23;7.15;;;4.15;;
83513;SDS011;73447;53.262;10.424;2023-11-22T12:47:51;8.63;;;4.75;;
83513;SDS011;73447;53.262;10.424;2023-11-22T12:53:13;7.93;;;4.47;;
83513;SDS011;73447;53.262;10.424;2023-11-22T12:55:44;7.82;;;4.20;;
83513;SDS011;73447;53.262;10.424;2023-11-22T12:58:15;7.60;;;4.05;;
83513;SDS011;73447;53.262;10.424;2023-11-22T13:00:41;7.93;;;4.70;;
83513;SDS011;73447;53.262;10.424;2023-11-22T13:03:08;8.30;;;4.50;;
83513;SDS011;73447;53.262;10.424;2023-11-22T13:05:39;10.50;;;4.28;;
83513;SDS011;73447;53.262;10.424;2023-11-22T13:08:07;7.13;;;4.07;;
83513;SDS011;73447;53.262;10.424;2023-11-22T13:10:36;5.70;;;3.80;;
83513;SDS011;73447;53.262;10.424;2023-11-22T13:13:01;6.10;;;4.00;;
83513;SDS011;73447;53.262;10.424;2023-11-22T13:15:27;7.53;;;4.03;;
83513;SDS011;73447;53.262;10.424;2023-11-22T13:17:53;5.35;;;3.83;;
83513;SDS011;73447;53.262;10.424;2023-11-22T13:20:29;6.18;;;3.75;;
83513;SDS011;73447;53.262;10.424;2023-11-22T13:22:55;6.45;;;3.63;;
83513;SDS011;73447;53.262;10.424;2023-11-22T13:25:22;5.88;;;3.50;;
83513;SDS011;73447;53.262;10.424;2023-11-22T13:27:48;5.50;;;3.30;;
83513;SDS011;73447;53.262;10.424;2023-11-22T13:30:15;6.25;;;3.53;;
83513;SDS011;73447;53.262;10.424;2023-11-22T13:32:44;5.13;;;3.33;;
83513;SDS011;73447;53.262;10.424;2023-11-22T13:35:10;5.28;;;3.20;;
83513;SDS011;73447;53.262;10.424;2023-11-22T13:37:45;5.05;;;3.15;;
83513;SDS011;73447;53.262;10.424;2023-11-22T13:40:13;4.47;;;3.17;;
83513;SDS011;73447;53.262;10.424;2023-11-22T13:42:43;4.93;;;3.28;;
83513;SDS011;73447;53.262;10.424;2023-11-22T13:45:10;5.35;;;3.25;;
83513;SDS011;73447;53.262;10.424;2023-11-22T13:47:40;5.80;;;3.20;;
83513;SDS011;73447;53.262;10.424;2023-11-22T13:50:06;5.85;;;2.85;;
83513;SDS011;73447;53.262;10.424;2023-11-22T13:52:31;4.50;;;2.90;;
83513;SDS011;73447;53.262;10.424;2023-11-22T13:54:57;5.28;;;3.38;;
83513;SDS011;73447;53.262;10.424;2023-11-22T13:57:23;5.57;;;3.35;;
83513;SDS011;73447;53.262;10.424;2023-11-22T13:59:48;5.45;;;3.45;;
83513;SDS011;73447;53.262;10.424;2023-11-22T14:02:14;6.35;;;3.33;;
83513;SDS011;73447;53.262;10.424;2023-11-22T14:04:39;5.30;;;3.67;;
83513;SDS011;73447;53.262;10.424;2023-11-22T14:07:05;5.03;;;3.30;;
83513;SDS011;73447;53.262;10.424;2023-11-22T14:09:31;5.72;;;3.38;;
83513;SDS011;73447;53.262;10.424;2023-11-22T14:12:01;7.07;;;3.50;;
83513;SDS011;73447;53.262;10.424;2023-11-22T14:14:27;10.15;;;3.30;;
83513;SDS011;73447;53.262;10.424;2023-11-22T14:16:52;5.95;;;3.45;;
83513;SDS011;73447;53.262;10.424;2023-11-22T14:19:18;5.97;;;2.90;;
83513;SDS011;73447;53.262;10.424;2023-11-22T14:21:43;5.70;;;3.20;;
83513;SDS011;73447;53.262;10.424;2023-11-22T14:24:09;5.03;;;3.05;;
83513;SDS011;73447;53.262;10.424;2023-11-22T14:26:35;6.63;;;3.20;;
83513;SDS011;73447;53.262;10.424;2023-11-22T14:29:01;6.20;;;3.28;;
83513;SDS011;73447;53.262;10.424;2023-11-22T14:31:26;7.60;;;3.78;;
83513;SDS011;73447;53.262;10.424;2023-11-22T14:33:52;4.97;;;2.90;;